createdAt,value
2023-01-07T00:02:43.079Z,17.87
2023-01-07T00:07:12.481Z,18.88
2023-01-07T00:11:17.661Z,17.65
2023-01-07T00:15:23.968Z,17.13
2023-01-07T00:19:29.208Z,18.00
2023-01-07T00:23:37.577Z,22.85
2023-01-07T00:28:10.737Z,20.70
2023-01-07T00:32:14.306Z,18.02
2023-01-07T00:36:19.465Z,14.85
2023-01-07T00:40:27.793Z,14.68
2023-01-07T00:45:34.121Z,19.63
2023-01-07T00:49:37.757Z,18.70
2023-01-07T00:53:40.752Z,17.80
2023-01-07T00:57:49.285Z,19.87
2023-01-07T01:01:52.409Z,16.65
2023-01-07T01:05:57.090Z,19.88
2023-01-07T01:10:33.290Z,18.83
2023-01-07T01:14:40.157Z,17.75
2023-01-07T01:18:43.569Z,22.33
2023-01-07T01:22:48.013Z,17.67
2023-01-07T01:26:51.535Z,18.67
2023-01-07T01:31:02.582Z,18.88
2023-01-07T01:35:13.557Z,20.63
2023-01-07T01:39:16.748Z,24.40
2023-01-07T01:43:31.294Z,20.00
2023-01-07T01:47:39.649Z,23.52
2023-01-07T01:51:49.741Z,19.50
2023-01-07T01:56:06.834Z,22.83
2023-01-07T02:00:28.405Z,16.30
2023-01-07T02:04:40.327Z,16.10
2023-01-07T02:09:09.281Z,20.77
2023-01-07T02:13:47.388Z,19.23
2023-01-07T02:18:07.536Z,16.40
2023-01-07T02:22:27.056Z,20.90
2023-01-07T02:27:08.988Z,19.20
2023-01-07T02:31:43.352Z,20.63
2023-01-07T02:36:21.842Z,20.40
2023-01-07T02:40:31.885Z,20.13
2023-01-07T02:44:46.186Z,19.67
2023-01-07T02:48:49.926Z,19.45
2023-01-07T02:53:25.172Z,17.33
2023-01-07T02:58:06.782Z,19.60
2023-01-07T03:02:27.533Z,15.70
2023-01-07T03:06:54.855Z,18.35
2023-01-07T03:11:00.812Z,21.02
2023-01-07T03:15:12.155Z,22.38
2023-01-07T03:19:19.042Z,17.98
2023-01-07T03:23:28.953Z,22.17
2023-01-07T03:27:36.605Z,23.70
2023-01-07T03:31:50.626Z,23.83
2023-01-07T03:36:01.550Z,23.77
2023-01-07T03:40:10.799Z,26.57
2023-01-07T03:44:16.744Z,27.02
2023-01-07T03:48:22.750Z,24.13
2023-01-07T03:52:25.887Z,24.63
2023-01-07T03:56:28.931Z,26.88
2023-01-07T04:00:41.380Z,22.80
2023-01-07T04:04:47.115Z,28.05
2023-01-07T04:08:50.334Z,23.98
2023-01-07T04:12:55.234Z,25.60
2023-01-07T04:16:59.979Z,23.20
2023-01-07T04:21:03.099Z,21.13
2023-01-07T04:25:10.076Z,24.73
2023-01-07T04:29:13.582Z,24.40
2023-01-07T04:33:24.759Z,24.33
2023-01-07T04:37:30.424Z,23.70
2023-01-07T04:41:35.640Z,21.55
2023-01-07T04:45:40.067Z,20.80
2023-01-07T04:49:50.623Z,24.80
2023-01-07T04:53:53.996Z,21.98
2023-01-07T04:58:01.187Z,22.80
2023-01-07T05:02:05.234Z,23.20
2023-01-07T05:06:10.200Z,26.63
2023-01-07T05:10:13.263Z,21.88
2023-01-07T05:14:17.550Z,22.25
2023-01-07T05:18:20.825Z,22.00
2023-01-07T05:22:25.339Z,21.23
2023-01-07T05:26:30.351Z,21.38
2023-01-07T05:30:35.865Z,21.10
2023-01-07T05:34:43.549Z,22.13
2023-01-07T05:38:52.220Z,23.73
2023-01-07T05:42:55.557Z,24.70
2023-01-07T05:46:58.611Z,21.38
2023-01-07T05:51:03.861Z,23.98
2023-01-07T05:55:09.607Z,24.50
2023-01-07T05:59:13.897Z,24.05
2023-01-07T06:03:19.825Z,28.00
2023-01-07T06:07:22.816Z,26.55
2023-01-07T06:11:30.863Z,24.23
2023-01-07T06:15:36.326Z,21.60
2023-01-07T06:19:41.420Z,21.80
2023-01-07T06:23:46.782Z,23.25
2023-01-07T06:27:51.440Z,22.40
2023-01-07T06:31:56.675Z,23.38
2023-01-07T06:36:01.374Z,20.98
2023-01-07T06:40:11.334Z,22.93
2023-01-07T06:44:20.859Z,19.50
2023-01-07T06:48:23.915Z,22.67
2023-01-07T06:52:29.936Z,29.13
2023-01-07T06:56:35.694Z,26.47
2023-01-07T07:00:43.962Z,28.35
2023-01-07T07:04:51.388Z,29.10
2023-01-07T07:08:56.060Z,33.17
2023-01-07T07:12:59.313Z,32.97
2023-01-07T07:17:03.959Z,34.97
2023-01-07T07:21:10.027Z,34.07
2023-01-07T07:25:15.305Z,31.10
2023-01-07T07:29:21.775Z,36.57
2023-01-07T07:33:26.555Z,32.60
2023-01-07T07:37:32.818Z,35.75
2023-01-07T07:41:35.913Z,33.03
2023-01-07T07:45:41.442Z,32.43
2023-01-07T07:49:48.546Z,38.20
2023-01-07T07:53:51.687Z,41.80
2023-01-07T07:58:06.982Z,42.20
2023-01-07T08:02:12.577Z,38.30
2023-01-07T08:06:31.935Z,34.75
2023-01-07T08:10:35.014Z,35.42
2023-01-07T08:14:39.862Z,38.70
2023-01-07T08:18:44.769Z,33.53
2023-01-07T08:22:56.125Z,35.27
2023-01-07T08:26:59.152Z,36.00
2023-01-07T08:31:03.614Z,35.53
2023-01-07T08:35:09.313Z,37.47
2023-01-07T08:39:17.190Z,37.03
2023-01-07T08:43:24.217Z,36.58
2023-01-07T08:47:31.576Z,33.30
2023-01-07T08:51:37.948Z,27.67
2023-01-07T08:55:44.079Z,28.90
2023-01-07T08:59:47.324Z,30.15
2023-01-07T09:03:51.826Z,26.98
2023-01-07T09:07:56.941Z,27.33
2023-01-07T09:12:01.679Z,25.67
2023-01-07T09:16:05.485Z,26.25
2023-01-07T09:20:10.199Z,27.88
2023-01-07T09:29:30.637Z,23.30
2023-01-07T09:34:04.466Z,29.05
2023-01-07T09:38:41.447Z,19.55
2023-01-07T09:43:19.521Z,20.05
2023-01-07T09:48:04.765Z,19.95
2023-01-07T09:52:38.124Z,17.55
2023-01-07T09:57:13.028Z,16.40
2023-01-07T10:01:50.037Z,16.35
2023-01-07T10:06:15.062Z,14.57
2023-01-07T10:10:37.990Z,13.93
2023-01-07T10:15:20.335Z,12.50
2023-01-07T10:19:49.559Z,15.25
2023-01-07T10:23:59.103Z,15.75
2023-01-07T10:28:07.339Z,18.45
2023-01-07T10:32:39.461Z,11.93
2023-01-07T10:37:12.848Z,12.50
2023-01-07T10:41:21.500Z,9.40
2023-01-07T10:45:56.171Z,10.00
2023-01-07T10:50:31.536Z,11.90
2023-01-07T10:55:21.205Z,8.73
2023-01-07T10:59:30.251Z,9.93
2023-01-07T11:04:01.639Z,9.13
2023-01-07T11:13:28.904Z,9.48
2023-01-07T11:17:38.603Z,7.40
2023-01-07T11:22:20.559Z,7.18
2023-01-07T11:26:28.562Z,6.63
2023-01-07T11:30:36.057Z,8.60
2023-01-07T11:35:09.580Z,6.53
2023-01-07T11:39:45.732Z,6.18
2023-01-07T11:44:23.379Z,6.68
2023-01-07T11:48:54.783Z,9.13
2023-01-07T11:53:36.758Z,8.75
2023-01-07T11:58:28.477Z,6.38
2023-01-07T12:03:01.829Z,7.85
2023-01-07T12:07:08.263Z,5.13
2023-01-07T12:11:41.812Z,6.70
2023-01-07T12:15:52.815Z,6.50
2023-01-07T12:20:15.735Z,6.40
2023-01-07T12:24:37.827Z,6.72
2023-01-07T12:29:08.812Z,14.82
2023-01-07T12:33:24.584Z,18.92
2023-01-07T12:37:32.719Z,12.65
2023-01-07T12:42:05.178Z,8.55
2023-01-07T12:46:17.723Z,5.20
2023-01-07T12:50:45.853Z,4.60
2023-01-07T12:55:22.057Z,5.00
2023-01-07T12:59:57.255Z,6.07
2023-01-07T13:04:42.416Z,6.35
2023-01-07T13:08:53.704Z,4.97
2023-01-07T13:12:59.848Z,5.47
2023-01-07T13:17:40.720Z,4.75
2023-01-07T13:21:59.794Z,6.88
2023-01-07T13:26:34.088Z,5.20
2023-01-07T13:30:46.308Z,5.90
2023-01-07T13:35:32.586Z,5.28
2023-01-07T13:40:01.609Z,4.70
2023-01-07T13:45:00.753Z,4.22
2023-01-07T13:49:56.636Z,4.28
2023-01-07T13:54:00.926Z,6.15
2023-01-07T13:58:44.035Z,6.82
2023-01-07T14:02:59.072Z,4.93
2023-01-07T14:07:33.834Z,4.60
2023-01-07T14:11:55.005Z,5.00
2023-01-07T14:16:07.781Z,6.18
2023-01-07T14:20:39.819Z,6.25
2023-01-07T14:25:22.670Z,4.80
2023-01-07T14:29:46.570Z,7.80
2023-01-07T14:34:07.349Z,7.72
2023-01-07T14:38:49.339Z,5.57
2023-01-07T14:43:32.057Z,6.03
2023-01-07T14:47:58.105Z,5.97
2023-01-07T14:52:38.274Z,9.88
2023-01-07T14:56:52.576Z,8.13
2023-01-07T15:01:36.782Z,8.65
2023-01-07T15:06:14.232Z,6.43
2023-01-07T15:10:51.245Z,62.50
2023-01-07T15:15:35.718Z,20.25
2023-01-07T15:19:45.314Z,10.57
2023-01-07T15:24:24.951Z,13.68
2023-01-07T15:29:02.144Z,11.07
2023-01-07T15:33:32.897Z,11.68
2023-01-07T15:38:23.651Z,9.57
2023-01-07T15:42:54.551Z,8.50
2023-01-07T15:47:30.791Z,7.93
2023-01-07T15:52:22.582Z,8.15
2023-01-07T15:56:45.567Z,126.55
2023-01-07T16:01:19.062Z,113.88
2023-01-07T16:05:53.438Z,11.77
2023-01-07T16:09:59.948Z,69.20
2023-01-07T16:14:05.919Z,6.35
2023-01-07T16:18:42.204Z,7.35
2023-01-07T16:23:15.984Z,8.88
2023-01-07T16:27:53.491Z,10.07
2023-01-07T16:32:30.935Z,6.70
2023-01-07T16:37:13.894Z,11.63
2023-01-07T16:41:45.785Z,9.47
2023-01-07T16:46:23.727Z,13.40
2023-01-07T16:50:55.631Z,15.30
2023-01-07T16:55:35.588Z,15.83
2023-01-07T17:00:21.573Z,13.80
2023-01-07T17:04:49.501Z,12.57
2023-01-07T17:09:27.608Z,13.33
2023-01-07T17:14:25.511Z,12.53
2023-01-07T17:19:04.624Z,17.27
2023-01-07T17:23:48.406Z,15.97
2023-01-07T17:28:19.401Z,11.63
2023-01-07T17:32:53.254Z,10.87
2023-01-07T17:37:31.322Z,14.20
2023-01-07T17:42:29.557Z,10.07
2023-01-07T17:46:44.634Z,9.67
2023-01-07T17:51:18.078Z,13.10
2023-01-07T17:55:55.018Z,10.93
2023-01-07T18:00:36.704Z,12.13
2023-01-07T18:05:07.321Z,11.40
2023-01-07T18:09:44.582Z,14.67
2023-01-07T18:13:47.710Z,13.07
2023-01-07T18:18:26.222Z,15.30
2023-01-07T18:22:59.944Z,19.30
2023-01-07T18:27:37.174Z,21.90
2023-01-07T18:32:13.867Z,16.27
2023-01-07T18:36:53.539Z,20.83
2023-01-07T18:41:27.618Z,36.30
2023-01-07T18:46:08.052Z,21.70
2023-01-07T18:50:11.507Z,19.20
2023-01-07T18:54:47.437Z,20.80
2023-01-07T18:59:21.863Z,24.87
2023-01-07T19:04:02.043Z,36.43
2023-01-07T19:08:36.078Z,36.63
2023-01-07T19:13:15.328Z,29.17
2023-01-07T19:17:49.332Z,31.57
2023-01-07T19:22:26.488Z,31.03
2023-01-07T19:27:03.395Z,24.47
2023-01-07T19:31:45.634Z,36.10
2023-01-07T19:36:17.776Z,22.70
2023-01-07T19:40:23.950Z,24.97
2023-01-07T19:44:27.081Z,27.07
2023-01-07T19:49:13.513Z,30.73
2023-01-07T19:53:44.039Z,41.10
2023-01-07T19:58:15.074Z,22.17
2023-01-07T20:02:52.298Z,27.80
2023-01-07T20:07:36.304Z,27.20
2023-01-07T20:12:06.204Z,29.23
2023-01-07T20:17:04.342Z,22.57
2023-01-07T20:21:42.388Z,30.63
2023-01-07T20:26:29.504Z,31.27
2023-01-07T20:30:35.272Z,33.00
2023-01-07T20:35:14.988Z,41.07
2023-01-07T20:39:49.520Z,43.23
2023-01-07T20:43:53.813Z,52.93
2023-01-07T20:47:59.653Z,40.93
2023-01-07T20:52:03.911Z,48.93
2023-01-07T20:56:11.125Z,138.77
2023-01-07T21:00:15.789Z,56.20
2023-01-07T21:04:51.174Z,63.23
2023-01-07T21:09:28.562Z,41.53
2023-01-07T21:14:05.292Z,34.70
2023-01-07T21:19:07.844Z,39.13
2023-01-07T21:23:43.170Z,35.33
2023-01-07T21:28:17.241Z,35.03
2023-01-07T21:32:20.438Z,30.30
2023-01-07T21:36:24.806Z,32.87
2023-01-07T21:40:31.674Z,31.93
2023-01-07T21:45:02.363Z,32.20
2023-01-07T21:49:39.937Z,30.27
2023-01-07T21:54:16.523Z,30.77
2023-01-07T21:58:57.773Z,29.87
2023-01-07T22:03:03.867Z,76.67
2023-01-07T22:07:08.807Z,150.37
2023-01-07T22:11:44.160Z,468.13
2023-01-07T22:16:22.479Z,396.60
2023-01-07T22:21:23.555Z,490.57
2023-01-07T22:26:03.125Z,261.17
2023-01-07T22:30:35.245Z,240.67
2023-01-07T22:34:41.677Z,63.93
2023-01-07T22:39:16.763Z,50.97
2023-01-07T22:43:25.498Z,35.53
2023-01-07T22:47:55.959Z,38.07
2023-01-07T22:52:05.616Z,39.57
2023-01-07T22:56:09.325Z,47.50
2023-01-07T23:00:20.695Z,35.27
2023-01-07T23:04:25.274Z,367.17
2023-01-07T23:08:30.202Z,351.83
2023-01-07T23:12:38.846Z,50.73
2023-01-07T23:16:42.042Z,47.97
2023-01-07T23:20:45.611Z,33.77
2023-01-07T23:24:55.070Z,46.03
2023-01-07T23:28:59.917Z,41.73
2023-01-07T23:33:06.727Z,41.50
2023-01-07T23:37:48.737Z,36.47
2023-01-07T23:41:59.137Z,36.33
2023-01-07T23:46:07.755Z,29.20
2023-01-07T23:50:11.558Z,32.63
2023-01-07T23:54:14.676Z,33.57
2023-01-07T23:58:19.544Z,37.87
